createdAt,value
2023-05-05T00:00:04.683Z,40.73
2023-05-05T00:01:04.645Z,40.71
2023-05-05T00:02:04.708Z,40.73
2023-05-05T00:03:04.796Z,40.69
2023-05-05T00:04:04.729Z,40.69
2023-05-05T00:05:04.733Z,40.72
2023-05-05T00:06:04.727Z,40.72
2023-05-05T00:07:04.744Z,40.72
2023-05-05T00:08:04.748Z,40.71
2023-05-05T00:09:04.760Z,40.71
2023-05-05T00:10:04.872Z,40.70
2023-05-05T00:11:04.797Z,40.70
2023-05-05T00:12:04.802Z,40.68
2023-05-05T00:13:04.860Z,40.71
2023-05-05T00:14:04.842Z,40.69
2023-05-05T00:15:04.832Z,40.69
2023-05-05T00:16:04.853Z,40.67
2023-05-05T00:17:04.908Z,40.66
2023-05-05T00:18:04.941Z,40.69
2023-05-05T00:19:04.890Z,40.69
2023-05-05T00:20:05.041Z,40.67
2023-05-05T00:21:04.925Z,40.67
2023-05-05T00:22:04.940Z,40.66
2023-05-05T00:23:04.962Z,40.67
2023-05-05T00:24:04.969Z,40.66
2023-05-05T00:25:04.987Z,40.66
2023-05-05T00:26:05.003Z,40.64
2023-05-05T00:27:05.036Z,40.67
2023-05-05T00:28:05.043Z,40.65
2023-05-05T00:29:05.068Z,40.64
2023-05-05T00:30:05.125Z,40.65
2023-05-05T00:31:05.182Z,40.62
2023-05-05T00:32:05.117Z,40.63
2023-05-05T00:33:05.126Z,40.61
2023-05-05T00:34:05.145Z,40.66
2023-05-05T00:35:05.162Z,40.65
2023-05-05T00:36:05.183Z,40.61
2023-05-05T00:37:05.193Z,40.63
2023-05-05T00:38:05.256Z,40.61
2023-05-05T00:39:05.220Z,40.63
2023-05-05T00:40:05.394Z,40.61
2023-05-05T00:41:05.275Z,40.61
2023-05-05T00:42:05.292Z,40.58
2023-05-05T00:43:05.350Z,40.58
2023-05-05T00:44:05.360Z,40.58
2023-05-05T00:45:05.322Z,40.58
2023-05-05T00:46:05.382Z,40.59
2023-05-05T00:47:05.354Z,40.60
2023-05-05T00:48:05.450Z,40.60
2023-05-05T00:49:05.419Z,40.60
2023-05-05T00:50:05.537Z,40.57
2023-05-05T00:51:05.409Z,40.58
2023-05-05T00:52:05.438Z,40.57
2023-05-05T00:53:05.438Z,40.56
2023-05-05T00:54:05.461Z,40.57
2023-05-05T00:55:05.476Z,40.56
2023-05-05T00:56:05.493Z,40.56
2023-05-05T00:57:05.526Z,40.54
2023-05-05T00:58:05.552Z,40.57
2023-05-05T00:59:05.566Z,40.55
2023-05-05T01:00:05.705Z,40.57
2023-05-05T01:01:05.581Z,40.55
2023-05-05T01:02:05.657Z,40.52
2023-05-05T01:03:05.701Z,40.54
2023-05-05T01:04:05.671Z,40.52
2023-05-05T01:05:05.645Z,40.52
2023-05-05T01:06:05.679Z,40.52
2023-05-05T01:07:05.675Z,40.52
2023-05-05T01:08:05.698Z,40.54
2023-05-05T01:09:05.714Z,40.52
2023-05-05T01:10:18.858Z,40.52
2023-05-05T01:11:06.751Z,40.54
2023-05-05T01:12:05.744Z,40.54
2023-05-05T01:13:05.777Z,40.50
2023-05-05T01:14:05.760Z,40.53
2023-05-05T01:15:05.781Z,40.50
2023-05-05T01:16:05.825Z,40.50
2023-05-05T01:17:05.798Z,40.48
2023-05-05T01:18:05.865Z,40.49
2023-05-05T01:19:05.808Z,40.50
2023-05-05T01:20:05.940Z,40.48
2023-05-05T01:21:05.824Z,40.50
2023-05-05T01:22:05.852Z,40.47
2023-05-05T01:23:05.876Z,40.50
2023-05-05T01:24:05.878Z,40.47
2023-05-05T01:25:05.893Z,40.50
2023-05-05T01:26:05.907Z,40.47
2023-05-05T01:27:05.923Z,40.47
2023-05-05T01:28:05.939Z,40.48
2023-05-05T01:29:05.946Z,40.43
2023-05-05T01:30:06.120Z,40.46
2023-05-05T01:31:05.970Z,40.45
2023-05-05T01:32:05.982Z,40.45
2023-05-05T01:33:05.979Z,40.44
2023-05-05T01:34:05.991Z,40.46
2023-05-05T01:35:06.002Z,40.45
2023-05-05T01:36:06.008Z,40.46
2023-05-05T01:37:06.027Z,40.45
2023-05-05T01:38:06.042Z,40.45
2023-05-05T01:39:06.035Z,40.43
2023-05-05T01:40:06.231Z,40.43
2023-05-05T01:41:06.068Z,40.44
2023-05-05T01:42:06.072Z,40.41
2023-05-05T01:43:06.081Z,40.44
2023-05-05T01:44:06.102Z,40.41
2023-05-05T01:45:06.104Z,40.42
2023-05-05T01:46:06.146Z,40.44
2023-05-05T01:47:06.130Z,40.41
2023-05-05T01:48:06.179Z,40.42
2023-05-05T01:49:06.167Z,40.42
2023-05-05T01:50:06.383Z,40.41
2023-05-05T01:51:06.180Z,40.42
2023-05-05T01:52:06.188Z,40.42
2023-05-05T01:53:06.201Z,40.42
2023-05-05T01:54:06.211Z,40.42
2023-05-05T01:55:06.222Z,40.40
2023-05-05T01:56:06.241Z,40.40
2023-05-05T01:57:06.262Z,40.39
2023-05-05T01:58:06.272Z,40.39
2023-05-05T01:59:06.270Z,40.38
2023-05-05T02:00:06.380Z,40.40
2023-05-05T02:01:06.351Z,40.39
2023-05-05T02:02:07.187Z,40.41
2023-05-05T02:03:06.394Z,40.38
2023-05-05T02:04:06.350Z,40.40
2023-05-05T02:05:06.341Z,40.38
2023-05-05T02:06:06.359Z,40.40
2023-05-05T02:07:06.374Z,40.38
2023-05-05T02:08:06.381Z,40.39
2023-05-05T02:09:06.399Z,40.35
2023-05-05T02:10:06.694Z,40.37
2023-05-05T02:11:06.466Z,40.36
2023-05-05T02:12:06.455Z,40.35
2023-05-05T02:13:06.539Z,40.37
2023-05-05T02:14:06.435Z,40.36
2023-05-05T02:15:06.446Z,40.34
2023-05-05T02:16:06.483Z,40.34
2023-05-05T02:17:06.465Z,40.35
2023-05-05T02:18:06.620Z,40.35
2023-05-05T02:19:06.490Z,40.36
2023-05-05T02:20:06.694Z,40.34
2023-05-05T02:21:06.506Z,40.32
2023-05-05T02:22:06.534Z,40.33
2023-05-05T02:23:06.545Z,40.35
2023-05-05T02:24:06.563Z,40.34
2023-05-05T02:25:06.573Z,40.35
2023-05-05T02:26:06.598Z,40.33
2023-05-05T02:27:06.601Z,40.35
2023-05-05T02:28:06.614Z,40.33
2023-05-05T02:29:06.629Z,40.34
2023-05-05T02:30:06.867Z,40.32
2023-05-05T02:31:06.674Z,40.33
2023-05-05T02:32:06.655Z,40.33
2023-05-05T02:33:06.765Z,40.33
2023-05-05T02:34:06.696Z,40.30
2023-05-05T02:35:06.709Z,40.32
2023-05-05T02:36:06.728Z,40.30
2023-05-05T02:37:06.747Z,40.32
2023-05-05T02:38:06.768Z,40.30
2023-05-05T02:39:06.786Z,40.32
2023-05-05T02:40:07.114Z,40.33
2023-05-05T02:41:06.821Z,40.30
2023-05-05T02:42:06.827Z,40.30
2023-05-05T02:43:06.933Z,40.32
2023-05-05T02:44:06.884Z,40.29
2023-05-05T02:45:06.906Z,40.29
2023-05-05T02:46:06.934Z,40.29
2023-05-05T02:47:06.932Z,40.30
2023-05-05T02:48:06.962Z,40.29
2023-05-05T02:49:06.962Z,40.27
2023-05-05T02:50:07.167Z,40.27
2023-05-05T02:51:07.002Z,40.27
2023-05-05T02:52:07.038Z,40.29
2023-05-05T02:53:07.025Z,40.27
2023-05-05T02:54:07.058Z,40.28
2023-05-05T02:55:07.067Z,40.24
2023-05-05T02:56:07.071Z,40.26
2023-05-05T02:57:07.093Z,40.25
2023-05-05T02:58:07.092Z,40.26
2023-05-05T02:59:07.114Z,40.24
2023-05-05T03:00:07.321Z,40.23
2023-05-05T03:01:07.217Z,40.24
2023-05-05T03:02:07.152Z,40.22
2023-05-05T03:03:07.240Z,40.22
2023-05-05T03:04:07.182Z,40.22
2023-05-05T03:05:07.260Z,40.24
2023-05-05T03:06:07.212Z,40.23
2023-05-05T03:07:07.218Z,40.23
2023-05-05T03:08:07.246Z,40.22
2023-05-05T03:09:07.260Z,40.17
2023-05-05T03:10:07.446Z,40.18
2023-05-05T03:11:07.296Z,40.18
2023-05-05T03:12:07.319Z,40.18
2023-05-05T03:13:07.398Z,40.16
2023-05-05T03:14:07.342Z,40.16
2023-05-05T03:15:07.361Z,40.19
2023-05-05T03:16:07.421Z,40.13
2023-05-05T03:17:07.397Z,40.16
2023-05-05T03:18:07.467Z,40.26
2023-05-05T03:19:07.425Z,40.24
2023-05-05T03:20:07.648Z,40.13
2023-05-05T03:21:07.454Z,40.15
2023-05-05T03:22:07.469Z,40.09
2023-05-05T03:23:07.482Z,40.18
2023-05-05T03:24:07.507Z,40.23
2023-05-05T03:25:07.530Z,40.22
2023-05-05T03:26:07.546Z,40.21
2023-05-05T03:27:07.546Z,40.13
2023-05-05T03:28:07.553Z,40.14
2023-05-05T03:29:07.568Z,40.14
2023-05-05T03:30:08.082Z,40.15
2023-05-05T03:31:07.597Z,40.19
2023-05-05T03:32:07.770Z,40.20
2023-05-05T03:33:07.705Z,40.18
2023-05-05T03:34:07.658Z,40.18
2023-05-05T03:35:07.676Z,40.17
2023-05-05T03:36:07.690Z,40.23
2023-05-05T03:37:07.716Z,40.17
2023-05-05T03:38:07.737Z,40.24
2023-05-05T03:39:07.742Z,40.20
2023-05-05T03:40:08.026Z,40.21
2023-05-05T03:41:07.793Z,40.11
2023-05-05T03:42:07.799Z,40.14
2023-05-05T03:43:07.814Z,40.19
2023-05-05T03:44:07.847Z,40.17
2023-05-05T03:45:07.840Z,40.22
2023-05-05T03:46:07.871Z,40.16
2023-05-05T03:47:07.878Z,40.20
2023-05-05T03:48:07.900Z,40.18
2023-05-05T03:49:07.883Z,40.12
2023-05-05T03:50:08.109Z,40.18
2023-05-05T03:51:07.913Z,40.13
2023-05-05T03:52:07.929Z,40.13
2023-05-05T03:53:07.943Z,40.18
2023-05-05T03:54:07.969Z,40.19
2023-05-05T03:55:07.969Z,40.21
2023-05-05T03:56:07.976Z,40.18
2023-05-05T03:57:07.989Z,40.18
2023-05-05T03:58:08.000Z,40.11
2023-05-05T03:59:08.015Z,40.16
2023-05-05T04:00:08.149Z,40.13
2023-05-05T04:01:08.032Z,40.18
2023-05-05T04:02:08.094Z,40.14
2023-05-05T04:03:08.304Z,40.14
2023-05-05T04:04:08.102Z,40.13
2023-05-05T04:05:08.062Z,40.14
2023-05-05T04:06:08.103Z,40.12
2023-05-05T04:07:08.089Z,40.12
2023-05-05T04:08:08.143Z,40.12
2023-05-05T04:09:08.124Z,40.11
2023-05-05T04:10:08.453Z,40.09
2023-05-05T04:11:08.158Z,40.05
2023-05-05T04:12:08.163Z,40.14
2023-05-05T04:13:08.208Z,40.15
2023-05-05T04:14:08.194Z,40.13
2023-05-05T04:15:08.210Z,40.12
2023-05-05T04:16:08.260Z,40.12
2023-05-05T04:17:08.256Z,40.10
2023-05-05T04:18:08.350Z,40.11
2023-05-05T04:19:08.299Z,40.09
2023-05-05T04:20:08.538Z,40.09
2023-05-05T04:21:08.378Z,40.09
2023-05-05T04:22:08.381Z,40.07
2023-05-05T04:23:08.391Z,40.09
2023-05-05T04:24:08.417Z,40.08
2023-05-05T04:25:08.428Z,40.06
2023-05-05T04:26:08.438Z,40.09
2023-05-05T04:27:08.531Z,40.08
2023-05-05T04:28:08.446Z,40.08
2023-05-05T04:29:08.454Z,40.09
2023-05-05T04:30:08.632Z,40.10
2023-05-05T04:31:08.505Z,40.05
2023-05-05T04:32:08.483Z,40.06
2023-05-05T04:33:08.501Z,40.06
2023-05-05T04:34:08.498Z,40.04
2023-05-05T04:35:08.500Z,40.05
2023-05-05T04:36:08.502Z,40.05
2023-05-05T04:37:08.555Z,40.05
2023-05-05T04:38:08.545Z,40.04
2023-05-05T04:39:08.609Z,40.01
2023-05-05T04:40:08.755Z,40.03
2023-05-05T04:41:08.578Z,40.01
2023-05-05T04:42:08.588Z,40.01
2023-05-05T04:43:08.613Z,40.02
2023-05-05T04:44:08.627Z,39.99
2023-05-05T04:45:08.629Z,39.98
2023-05-05T04:46:08.691Z,40.04
2023-05-05T04:47:08.667Z,40.00
2023-05-05T04:48:08.727Z,40.00
2023-05-05T04:49:08.684Z,40.01
2023-05-05T04:50:08.927Z,40.01
2023-05-05T04:51:08.728Z,40.02
2023-05-05T04:52:08.706Z,40.02
2023-05-05T04:53:08.714Z,40.00
2023-05-05T04:54:08.741Z,40.01
2023-05-05T04:55:08.754Z,40.00
2023-05-05T04:56:08.767Z,39.98
2023-05-05T04:57:08.789Z,39.97
2023-05-05T04:58:08.789Z,39.97
2023-05-05T04:59:08.868Z,39.98
2023-05-05T05:00:09.089Z,39.96
2023-05-05T05:01:08.883Z,39.96
2023-05-05T05:02:08.943Z,39.97
2023-05-05T05:03:09.095Z,39.90
2023-05-05T05:04:08.994Z,39.89
2023-05-05T05:05:09.016Z,39.89
2023-05-05T05:06:09.022Z,39.90
2023-05-05T05:07:09.070Z,39.88
2023-05-05T05:08:09.038Z,39.86
2023-05-05T05:09:09.045Z,39.86
2023-05-05T05:10:09.321Z,39.78
2023-05-05T05:11:09.071Z,39.78
2023-05-05T05:12:09.081Z,40.16
2023-05-05T05:13:11.962Z,40.16
2023-05-05T05:14:09.101Z,40.18
2023-05-05T05:15:09.115Z,40.18
2023-05-05T05:16:09.150Z,40.65
2023-05-05T05:17:09.133Z,40.68
2023-05-05T05:18:09.146Z,40.69
2023-05-05T05:19:09.147Z,40.85
2023-05-05T05:20:10.593Z,40.90
2023-05-05T05:21:09.149Z,40.88
2023-05-05T05:22:09.273Z,39.75
2023-05-05T05:23:09.172Z,40.29
2023-05-05T05:24:09.171Z,39.93
2023-05-05T05:25:09.191Z,40.43
2023-05-05T05:26:09.198Z,40.00
2023-05-05T05:27:10.097Z,40.12
2023-05-05T05:28:10.810Z,39.20
2023-05-05T05:29:09.225Z,39.49
2023-05-05T05:30:09.379Z,39.36
2023-05-05T05:31:09.245Z,38.96
2023-05-05T05:32:09.537Z,38.69
2023-05-05T05:33:09.318Z,38.64
2023-05-05T05:34:16.175Z,38.73
2023-05-05T05:35:09.364Z,38.74
2023-05-05T05:36:09.308Z,38.56
2023-05-05T05:37:10.250Z,38.59
2023-05-05T05:38:09.306Z,39.07
2023-05-05T05:39:09.323Z,39.09
2023-05-05T05:40:09.464Z,39.36
2023-05-05T05:41:09.327Z,39.71
2023-05-05T05:42:09.336Z,39.80
2023-05-05T05:43:12.176Z,39.70
2023-05-05T05:44:09.355Z,39.66
2023-05-05T05:45:09.347Z,39.77
2023-05-05T05:46:09.550Z,39.77
2023-05-05T05:47:09.386Z,39.75
2023-05-05T05:48:09.460Z,39.69
2023-05-05T05:49:10.157Z,39.69
2023-05-05T05:50:09.538Z,39.68
2023-05-05T05:51:09.389Z,39.70
2023-05-05T05:52:11.178Z,39.68
2023-05-05T05:53:09.401Z,39.62
2023-05-05T05:54:11.175Z,39.61
2023-05-05T05:55:11.174Z,39.62
2023-05-05T05:56:09.415Z,39.60
2023-05-05T05:57:09.424Z,39.60
2023-05-05T05:58:09.441Z,39.61
2023-05-05T05:59:09.440Z,39.59
2023-05-05T06:00:09.816Z,39.68
2023-05-05T06:01:09.442Z,39.77
2023-05-05T06:02:09.465Z,39.72
2023-05-05T06:03:09.668Z,39.65
2023-05-05T06:04:10.084Z,39.56
2023-05-05T06:05:09.455Z,39.46
2023-05-05T06:06:09.463Z,39.39
2023-05-05T06:07:09.461Z,39.31
2023-05-05T06:08:09.465Z,39.20
2023-05-05T06:09:09.476Z,39.20
2023-05-05T06:10:25.575Z,39.20
2023-05-05T06:11:10.474Z,39.22
2023-05-05T06:12:09.480Z,39.12
2023-05-05T06:13:09.671Z,39.20
2023-05-05T06:14:09.489Z,39.18
2023-05-05T06:15:09.494Z,39.19
2023-05-05T06:16:09.542Z,39.23
2023-05-05T06:17:09.508Z,39.23
2023-05-05T06:18:09.514Z,39.26
2023-05-05T06:19:09.519Z,39.31
2023-05-05T06:20:09.669Z,39.26
2023-05-05T06:21:09.528Z,39.37
2023-05-05T06:22:09.546Z,39.20
2023-05-05T06:23:09.566Z,39.41
2023-05-05T06:24:09.546Z,39.39
2023-05-05T06:25:09.542Z,39.35
2023-05-05T06:26:09.575Z,39.07
2023-05-05T06:27:09.560Z,38.95
2023-05-05T06:28:09.572Z,39.05
2023-05-05T06:29:11.705Z,38.75
2023-05-05T06:30:09.929Z,38.63
2023-05-05T06:31:09.637Z,38.65
2023-05-05T06:32:09.624Z,38.71
2023-05-05T06:33:09.734Z,38.89
2023-05-05T06:34:09.602Z,38.99
2023-05-05T06:35:09.634Z,39.08
2023-05-05T06:36:09.641Z,39.11
2023-05-05T06:37:10.690Z,39.21
2023-05-05T06:38:11.180Z,39.19
2023-05-05T06:39:11.773Z,39.21
2023-05-05T06:40:09.947Z,39.24
2023-05-05T06:41:09.861Z,39.29
2023-05-05T06:42:09.854Z,39.26
2023-05-05T06:43:09.873Z,39.24
2023-05-05T06:44:09.876Z,39.25
2023-05-05T06:45:09.891Z,39.23
2023-05-05T06:46:09.877Z,39.24
2023-05-05T06:47:09.902Z,39.26
2023-05-05T06:48:09.903Z,39.25
2023-05-05T06:49:09.912Z,39.25
2023-05-05T06:50:10.149Z,39.27
2023-05-05T06:51:09.914Z,39.26
2023-05-05T06:52:12.654Z,39.28
2023-05-05T06:53:09.925Z,39.26
2023-05-05T06:54:09.946Z,39.26
2023-05-05T06:55:10.172Z,39.25
2023-05-05T06:56:09.951Z,39.27
2023-05-05T06:57:09.994Z,39.28
2023-05-05T06:58:09.950Z,39.28
2023-05-05T06:59:09.957Z,39.29
2023-05-05T07:00:10.110Z,39.26
2023-05-05T07:01:09.980Z,39.29
2023-05-05T07:02:09.998Z,39.29
2023-05-05T07:03:10.026Z,39.28
2023-05-05T07:04:10.039Z,39.33
2023-05-05T07:05:11.692Z,39.34
2023-05-05T07:06:09.979Z,39.36
2023-05-05T07:07:10.020Z,39.37
2023-05-05T07:08:09.974Z,39.35
2023-05-05T07:09:09.986Z,39.39
2023-05-05T07:10:10.157Z,39.43
2023-05-05T07:11:10.182Z,39.42
2023-05-05T07:12:09.999Z,39.43
2023-05-05T07:13:10.032Z,39.41
2023-05-05T07:14:10.660Z,39.47
2023-05-05T07:15:23.331Z,39.46
2023-05-05T07:16:11.140Z,39.49
2023-05-05T07:17:11.037Z,39.45
2023-05-05T07:18:10.085Z,39.59
2023-05-05T07:19:10.075Z,39.85
2023-05-05T07:20:10.232Z,39.81
2023-05-05T07:21:11.683Z,39.96
2023-05-05T07:22:10.081Z,39.96
2023-05-05T07:23:10.656Z,39.84
2023-05-05T07:24:10.084Z,39.84
2023-05-05T07:25:10.077Z,39.82
2023-05-05T07:26:10.090Z,39.83
2023-05-05T07:27:10.242Z,39.84
2023-05-05T07:28:10.652Z,39.81
2023-05-05T07:29:10.689Z,39.93
2023-05-05T07:30:14.033Z,39.88
2023-05-05T07:31:11.082Z,39.92
2023-05-05T07:32:10.138Z,39.94
2023-05-05T07:33:10.152Z,39.95
2023-05-05T07:34:10.169Z,39.92
2023-05-05T07:35:10.116Z,39.86
2023-05-05T07:36:10.105Z,39.76
2023-05-05T07:37:10.110Z,39.68
2023-05-05T07:38:10.924Z,39.66
2023-05-05T07:39:10.123Z,39.64
2023-05-05T07:40:10.410Z,39.65
2023-05-05T07:41:10.125Z,39.64
2023-05-05T07:42:10.130Z,39.65
2023-05-05T07:43:12.217Z,39.62
2023-05-05T07:44:10.252Z,39.64
2023-05-05T07:45:10.276Z,39.58
2023-05-05T07:46:11.151Z,39.59
2023-05-05T07:47:10.291Z,39.59
2023-05-05T07:48:10.324Z,39.62
2023-05-05T07:49:10.338Z,39.61
2023-05-05T07:50:10.657Z,39.58
2023-05-05T07:51:10.351Z,39.58
2023-05-05T07:52:11.093Z,39.58
2023-05-05T07:53:14.889Z,39.56
2023-05-05T07:54:10.662Z,39.60
2023-05-05T07:55:10.409Z,39.62
2023-05-05T07:56:10.420Z,39.60
2023-05-05T07:57:10.400Z,39.62
2023-05-05T07:58:10.462Z,39.61
2023-05-05T07:59:11.118Z,39.62
2023-05-05T08:00:10.638Z,39.61
2023-05-05T08:01:10.422Z,39.64
2023-05-05T08:02:11.171Z,39.61
2023-05-05T08:03:12.014Z,39.61
2023-05-05T08:04:11.527Z,39.64
2023-05-05T08:05:11.690Z,39.65
2023-05-05T08:06:12.189Z,39.64
2023-05-05T08:07:10.462Z,39.63
2023-05-05T08:08:10.473Z,39.65
2023-05-05T08:09:12.181Z,39.65
2023-05-05T08:10:10.499Z,39.72
2023-05-05T08:11:10.510Z,39.74
2023-05-05T08:12:11.152Z,39.72
2023-05-05T08:13:10.608Z,39.69
2023-05-05T08:14:10.554Z,39.70
2023-05-05T08:15:10.914Z,39.78
2023-05-05T08:16:10.570Z,39.96
2023-05-05T08:17:11.205Z,40.17
2023-05-05T08:18:10.568Z,40.08
2023-05-05T08:19:25.015Z,39.93
2023-05-05T08:20:11.559Z,39.90
2023-05-05T08:21:10.574Z,40.10
2023-05-05T08:22:10.576Z,39.77
2023-05-05T08:23:10.591Z,39.35
2023-05-05T08:24:10.611Z,39.12
2023-05-05T08:25:10.591Z,39.07
2023-05-05T08:26:10.637Z,39.06
2023-05-05T08:27:10.611Z,39.10
2023-05-05T08:28:10.593Z,39.02
2023-05-05T08:29:10.608Z,38.94
2023-05-05T08:30:10.669Z,39.18
2023-05-05T08:31:10.832Z,39.04
2023-05-05T08:32:10.806Z,38.63
2023-05-05T08:33:11.027Z,38.65
2023-05-05T08:34:10.936Z,38.63
2023-05-05T08:35:11.140Z,38.61
2023-05-05T08:36:11.073Z,38.69
2023-05-05T08:37:11.154Z,38.67
2023-05-05T08:38:11.146Z,38.60
2023-05-05T08:39:11.141Z,38.71
2023-05-05T08:40:11.148Z,38.79
2023-05-05T08:41:11.164Z,38.97
2023-05-05T08:42:11.192Z,39.04
2023-05-05T08:43:11.199Z,39.11
2023-05-05T08:44:11.201Z,39.17
2023-05-05T08:45:11.611Z,39.32
2023-05-05T08:46:11.208Z,39.28
2023-05-05T08:47:11.465Z,39.34
2023-05-05T08:48:11.269Z,39.40
2023-05-05T08:49:11.229Z,39.41
2023-05-05T08:50:11.254Z,39.47
2023-05-05T08:51:11.274Z,39.50
2023-05-05T08:52:11.309Z,39.52
2023-05-05T08:53:11.281Z,39.51
2023-05-05T08:54:11.298Z,39.53
2023-05-05T08:55:11.316Z,39.49
2023-05-05T08:56:11.329Z,39.50
2023-05-05T08:57:11.324Z,39.52
2023-05-05T08:58:11.328Z,39.55
2023-05-05T08:59:11.346Z,39.59
2023-05-05T09:00:11.343Z,39.60
2023-05-05T09:01:11.425Z,39.60
2023-05-05T09:02:11.407Z,39.63
2023-05-05T09:03:11.631Z,39.62
2023-05-05T09:04:11.400Z,39.65
2023-05-05T09:05:11.401Z,39.65
2023-05-05T09:06:11.421Z,39.63
2023-05-05T09:07:11.434Z,39.59
2023-05-05T09:08:11.476Z,39.64
2023-05-05T09:09:11.438Z,39.63
2023-05-05T09:10:11.444Z,39.61
2023-05-05T09:11:11.491Z,39.60
2023-05-05T09:12:11.456Z,39.63
2023-05-05T09:13:11.497Z,39.63
2023-05-05T09:14:11.471Z,39.98
2023-05-05T09:15:11.649Z,40.20
2023-05-05T09:16:11.576Z,40.29
2023-05-05T09:17:11.563Z,40.41
2023-05-05T09:18:11.636Z,40.37
2023-05-05T09:19:11.844Z,40.60
2023-05-05T09:20:11.686Z,40.35
2023-05-05T09:21:11.681Z,40.06
2023-05-05T09:22:11.706Z,39.97
2023-05-05T09:23:12.184Z,39.87
2023-05-05T09:24:11.751Z,39.83
2023-05-05T09:25:12.810Z,39.74
2023-05-05T09:26:11.751Z,39.69
2023-05-05T09:27:11.737Z,39.66
2023-05-05T09:28:12.580Z,39.64
2023-05-05T09:29:12.330Z,39.58
2023-05-05T09:30:12.722Z,39.53
2023-05-05T09:31:11.979Z,39.52
2023-05-05T09:32:11.805Z,39.51
2023-05-05T09:33:12.446Z,39.54
2023-05-05T09:34:11.873Z,39.58
2023-05-05T09:35:11.918Z,39.61
2023-05-05T09:36:11.786Z,39.60
2023-05-05T09:37:11.800Z,39.60
2023-05-05T09:38:11.816Z,39.66
2023-05-05T09:39:11.810Z,39.68
2023-05-05T09:40:11.796Z,39.73
2023-05-05T09:41:11.823Z,39.75
2023-05-05T09:42:12.812Z,39.76
2023-05-05T09:43:11.809Z,39.75
2023-05-05T09:44:11.815Z,39.74
2023-05-05T09:45:12.675Z,39.76
2023-05-05T09:46:12.676Z,39.79
2023-05-05T09:47:25.927Z,39.78
2023-05-05T09:48:12.613Z,39.82
2023-05-05T09:49:11.814Z,39.78
2023-05-05T09:50:11.809Z,39.84
2023-05-05T09:51:12.729Z,39.86
2023-05-05T09:52:11.809Z,39.86
2023-05-05T09:53:13.619Z,39.90
2023-05-05T09:54:11.806Z,39.90
2023-05-05T09:55:11.813Z,39.91
2023-05-05T09:56:11.803Z,39.94
2023-05-05T09:57:14.686Z,39.94
2023-05-05T09:58:12.704Z,39.99
2023-05-05T09:59:11.859Z,39.95
2023-05-05T10:00:12.137Z,39.99
2023-05-05T10:01:11.844Z,39.98
2023-05-05T10:02:12.881Z,40.13
2023-05-05T10:03:12.668Z,40.04
2023-05-05T10:04:11.870Z,40.11
2023-05-05T10:05:11.850Z,40.06
2023-05-05T10:06:11.789Z,40.02
2023-05-05T10:07:11.916Z,40.00
2023-05-05T10:08:11.794Z,40.02
2023-05-05T10:09:14.689Z,40.01
2023-05-05T10:10:11.998Z,40.06
2023-05-05T10:11:11.777Z,40.11
2023-05-05T10:12:11.774Z,40.18
2023-05-05T10:13:12.002Z,40.16
2023-05-05T10:14:11.778Z,40.20
2023-05-05T10:15:11.813Z,40.34
2023-05-05T10:16:11.807Z,40.35
2023-05-05T10:17:11.797Z,40.30
2023-05-05T10:18:11.811Z,40.27
2023-05-05T10:19:11.792Z,40.23
2023-05-05T10:20:11.793Z,40.20
2023-05-05T10:21:11.794Z,40.19
2023-05-05T10:22:11.801Z,40.19
2023-05-05T10:23:11.874Z,40.21
2023-05-05T10:24:11.806Z,40.15
2023-05-05T10:25:11.819Z,40.18
2023-05-05T10:26:11.815Z,40.25
2023-05-05T10:27:12.673Z,40.28
2023-05-05T10:28:11.836Z,40.30
2023-05-05T10:29:11.827Z,40.31
2023-05-05T10:30:11.822Z,40.35
2023-05-05T10:31:24.556Z,40.47
2023-05-05T10:32:40.648Z,40.52
2023-05-05T10:33:30.366Z,40.57
2023-05-05T10:34:12.980Z,40.68
2023-05-05T10:35:11.836Z,40.70
2023-05-05T10:36:11.835Z,40.78
2023-05-05T10:37:11.835Z,40.81
2023-05-05T10:38:11.833Z,40.77
2023-05-05T10:39:11.863Z,40.88
2023-05-05T10:40:11.835Z,40.94
2023-05-05T10:41:11.838Z,41.00
2023-05-05T10:42:11.846Z,41.04
2023-05-05T10:43:11.855Z,41.02
2023-05-05T10:44:11.858Z,41.01
2023-05-05T10:45:11.875Z,41.10
2023-05-05T10:46:11.916Z,41.09
2023-05-05T10:47:11.860Z,41.20
2023-05-05T10:48:11.927Z,41.17
2023-05-05T10:49:13.182Z,41.18
2023-05-05T10:50:11.892Z,41.18
2023-05-05T10:51:11.884Z,41.19
2023-05-05T10:52:11.904Z,41.25
2023-05-05T10:53:12.907Z,41.27
2023-05-05T10:54:11.923Z,41.19
2023-05-05T10:55:12.008Z,41.18
2023-05-05T10:56:11.919Z,41.19
2023-05-05T10:57:11.917Z,41.18
2023-05-05T10:58:11.926Z,41.16
2023-05-05T10:59:11.919Z,41.22
2023-05-05T11:00:13.438Z,41.19
2023-05-05T11:01:11.938Z,41.19
2023-05-05T11:02:11.922Z,41.46
2023-05-05T11:03:12.013Z,41.51
2023-05-05T11:04:11.940Z,41.56
2023-05-05T11:05:11.925Z,41.63
2023-05-05T11:06:11.931Z,41.52
2023-05-05T11:07:14.588Z,41.34
2023-05-05T11:08:11.933Z,41.34
2023-05-05T11:09:11.977Z,41.27
2023-05-05T11:10:12.116Z,41.41
2023-05-05T11:11:12.076Z,41.49
2023-05-05T11:12:11.960Z,41.52
2023-05-05T11:13:11.958Z,41.48
2023-05-05T11:14:11.916Z,41.45
2023-05-05T11:15:11.918Z,41.46
2023-05-05T11:16:11.977Z,41.51
2023-05-05T11:17:11.911Z,41.45
2023-05-05T11:18:11.914Z,41.46
2023-05-05T11:19:11.912Z,41.42
2023-05-05T11:20:11.923Z,41.42
2023-05-05T11:21:11.914Z,41.30
2023-05-05T11:22:11.925Z,41.31
2023-05-05T11:23:13.361Z,41.32
2023-05-05T11:24:12.148Z,41.51
2023-05-05T11:25:12.205Z,41.77
2023-05-05T11:26:12.276Z,41.70
2023-05-05T11:27:12.382Z,41.75
2023-05-05T11:28:12.380Z,41.79
2023-05-05T11:29:12.383Z,41.82
2023-05-05T11:30:12.537Z,41.74
2023-05-05T11:31:12.408Z,41.72
2023-05-05T11:32:12.407Z,41.72
2023-05-05T11:33:12.415Z,41.69
2023-05-05T11:34:12.424Z,41.71
2023-05-05T11:35:12.427Z,41.66
2023-05-05T11:36:12.471Z,41.62
2023-05-05T11:37:12.464Z,41.62
2023-05-05T11:38:12.504Z,41.56
2023-05-05T11:39:12.526Z,41.51
2023-05-05T11:40:12.578Z,41.48
2023-05-05T11:41:12.586Z,41.41
2023-05-05T11:42:12.638Z,41.43
2023-05-05T11:43:12.674Z,41.44
2023-05-05T11:44:12.671Z,41.40
2023-05-05T11:45:12.681Z,41.30
2023-05-05T11:46:12.756Z,41.24
2023-05-05T11:47:12.701Z,41.30
2023-05-05T11:48:12.776Z,41.74
2023-05-05T11:49:12.722Z,41.75
2023-05-05T11:50:12.821Z,41.62
2023-05-05T11:51:12.788Z,41.87
2023-05-05T11:52:12.788Z,41.94
2023-05-05T11:53:12.812Z,41.92
2023-05-05T11:54:12.802Z,41.97
2023-05-05T11:55:12.829Z,42.31
2023-05-05T11:56:12.826Z,41.79
2023-05-05T11:57:12.834Z,42.49
2023-05-05T11:58:12.833Z,42.82
2023-05-05T11:59:12.899Z,42.58
2023-05-05T12:00:12.905Z,42.01
2023-05-05T12:01:12.847Z,42.05
2023-05-05T12:02:12.848Z,41.88
2023-05-05T12:03:12.958Z,41.57
2023-05-05T12:04:13.075Z,41.25
2023-05-05T12:05:12.881Z,41.03
2023-05-05T12:06:12.892Z,40.92
2023-05-05T12:07:12.924Z,40.69
2023-05-05T12:08:12.930Z,40.33
2023-05-05T12:09:12.937Z,40.29
2023-05-05T12:10:12.962Z,40.37
2023-05-05T12:11:12.968Z,40.16
2023-05-05T12:12:12.982Z,40.18
2023-05-05T12:13:13.006Z,40.88
2023-05-05T12:14:13.040Z,40.40
2023-05-05T12:15:13.074Z,40.41
2023-05-05T12:16:13.205Z,40.83
2023-05-05T12:17:13.143Z,41.41
2023-05-05T12:18:13.214Z,41.54
2023-05-05T12:19:13.152Z,41.39
2023-05-05T12:20:13.417Z,41.46
2023-05-05T12:21:13.204Z,41.54
2023-05-05T12:22:13.257Z,41.53
2023-05-05T12:23:13.313Z,41.53
2023-05-05T12:24:13.401Z,41.51
2023-05-05T12:25:13.431Z,41.43
2023-05-05T12:26:13.486Z,41.16
2023-05-05T12:27:13.557Z,40.52
2023-05-05T12:28:13.614Z,40.31
2023-05-05T12:29:13.678Z,39.38
2023-05-05T12:30:13.741Z,39.19
2023-05-05T12:31:13.886Z,38.65
2023-05-05T12:32:14.018Z,38.61
2023-05-05T12:33:13.900Z,39.61
2023-05-05T12:34:13.977Z,40.63
2023-05-05T12:35:13.945Z,40.68
2023-05-05T12:36:13.944Z,40.67
2023-05-05T12:37:13.971Z,40.34
2023-05-05T12:38:13.983Z,40.39
2023-05-05T12:39:14.004Z,40.45
2023-05-05T12:40:14.009Z,40.41
2023-05-05T12:41:14.016Z,40.31
2023-05-05T12:42:14.024Z,40.08
2023-05-05T12:43:14.055Z,40.12
2023-05-05T12:44:14.094Z,40.12
2023-05-05T12:45:14.139Z,40.20
2023-05-05T12:46:14.261Z,40.15
2023-05-05T12:47:14.254Z,40.11
2023-05-05T12:48:14.319Z,39.78
2023-05-05T12:49:14.380Z,39.61
2023-05-05T12:50:14.431Z,39.21
2023-05-05T12:51:14.464Z,39.31
2023-05-05T12:52:14.532Z,39.32